createdAt,value
2023-02-17T00:02:52.912Z,101368.27
2023-02-17T00:07:22.138Z,101364.86
2023-02-17T00:12:00.131Z,101366.05
2023-02-17T00:16:29.597Z,101354.96
2023-02-17T00:20:59.330Z,101354.93
2023-02-17T00:25:29.720Z,101355.73
2023-02-17T00:29:59.615Z,101353.59
2023-02-17T00:34:31.901Z,101354.20
2023-02-17T00:39:02.439Z,101352.71
2023-02-17T00:43:31.340Z,101346.23
2023-02-17T00:48:00.506Z,101350.99
2023-02-17T00:52:29.903Z,101349.21
2023-02-17T00:57:00.415Z,101347.77
2023-02-17T01:01:32.266Z,101336.34
2023-02-17T01:06:01.011Z,101338.05
2023-02-17T01:10:30.472Z,101331.98
2023-02-17T01:14:59.912Z,101327.08
2023-02-17T01:19:29.617Z,101328.75
2023-02-17T01:23:49.808Z,101321.70
2023-02-17T01:27:52.047Z,101316.59
2023-02-17T01:32:21.451Z,101305.60
2023-02-17T01:36:50.928Z,101296.73
2023-02-17T01:41:20.187Z,101288.45
2023-02-17T01:46:01.273Z,101286.23
2023-02-17T01:50:34.019Z,101279.82
2023-02-17T01:55:03.375Z,101271.34
2023-02-17T01:59:32.547Z,101260.90
2023-02-17T02:04:01.921Z,101255.55
2023-02-17T02:08:32.148Z,101248.36
2023-02-17T02:13:05.199Z,101248.70
2023-02-17T02:17:36.890Z,101245.56
2023-02-17T02:22:09.695Z,101241.73
2023-02-17T02:26:38.864Z,101230.98
2023-02-17T02:31:14.042Z,101228.65
2023-02-17T02:35:52.179Z,101223.08
2023-02-17T02:40:21.674Z,101227.25
2023-02-17T02:44:51.952Z,101222.58
2023-02-17T02:49:21.596Z,101218.14
2023-02-17T02:54:02.384Z,101212.08
2023-02-17T02:58:37.438Z,101203.09
2023-02-17T03:03:12.562Z,101197.80
2023-02-17T03:07:47.384Z,101196.26
2023-02-17T03:12:16.740Z,101197.59
2023-02-17T03:16:47.158Z,101196.79
2023-02-17T03:21:16.628Z,101192.60
2023-02-17T03:25:45.942Z,101190.36
2023-02-17T03:30:16.564Z,101185.84
2023-02-17T03:34:45.888Z,101187.71
2023-02-17T03:39:15.351Z,101172.91
2023-02-17T03:43:44.996Z,101174.66
2023-02-17T03:48:13.854Z,101171.09
2023-02-17T03:52:42.946Z,101163.41
2023-02-17T03:57:12.220Z,101163.52
2023-02-17T04:01:41.668Z,101153.91
2023-02-17T04:06:10.863Z,101151.30
2023-02-17T04:10:40.412Z,101150.36
2023-02-17T04:15:10.030Z,101144.10
2023-02-17T04:19:58.083Z,101140.50
2023-02-17T04:24:27.887Z,101133.88
2023-02-17T04:28:58.015Z,101132.18
2023-02-17T04:33:29.676Z,101135.63
2023-02-17T04:37:59.357Z,101133.20
2023-02-17T04:42:28.600Z,101137.05
2023-02-17T04:46:58.727Z,101135.77
2023-02-17T04:51:29.691Z,101124.91
2023-02-17T04:56:00.171Z,101120.30
2023-02-17T05:00:29.719Z,101111.95
2023-02-17T05:04:59.611Z,101104.77
2023-02-17T05:09:29.152Z,101092.59
2023-02-17T05:13:59.491Z,101087.91
2023-02-17T05:21:51.180Z,101082.19
2023-02-17T05:26:19.261Z,101091.92
2023-02-17T05:30:47.692Z,101092.23
2023-02-17T05:39:21.469Z,101081.71
2023-02-17T05:43:50.614Z,101074.80
2023-02-17T05:48:22.390Z,101071.48
2023-02-17T05:52:51.014Z,101072.95
2023-02-17T05:57:00.120Z,101072.64
2023-02-17T06:00:21.974Z,101077.21
2023-02-17T06:04:09.824Z,101065.83
2023-02-17T06:07:57.630Z,101064.77
2023-02-17T06:11:45.425Z,101057.70
2023-02-17T06:15:33.132Z,101058.63
2023-02-17T06:19:13.315Z,101057.02
2023-02-17T06:22:59.735Z,101055.70
2023-02-17T06:26:42.868Z,101050.85
2023-02-17T06:30:30.861Z,101045.20
2023-02-17T06:34:17.309Z,101043.42
2023-02-17T06:38:05.119Z,101047.73
2023-02-17T06:41:52.883Z,101042.45
2023-02-17T06:45:41.068Z,101044.05
2023-02-17T06:49:29.090Z,101045.55
2023-02-17T06:53:16.685Z,101043.76
2023-02-17T06:57:11.474Z,101044.04
2023-02-17T07:00:52.125Z,101028.05
2023-02-17T07:04:34.337Z,101027.67
2023-02-17T07:08:22.192Z,101026.73
2023-02-17T07:12:04.207Z,101022.52
2023-02-17T07:15:37.698Z,101032.63
2023-02-17T07:19:26.178Z,101030.14
2023-02-17T07:23:03.922Z,101035.20
2023-02-17T07:26:38.360Z,101031.66
2023-02-17T07:30:25.035Z,101024.38
2023-02-17T07:34:04.330Z,101027.55
2023-02-17T07:37:47.331Z,101024.80
2023-02-17T07:41:46.001Z,101025.41
2023-02-17T07:45:40.824Z,101018.39
2023-02-17T07:49:24.812Z,101009.50
2023-02-17T07:53:12.893Z,101004.69
2023-02-17T07:57:01.310Z,101006.13
2023-02-17T08:00:52.981Z,101007.35
2023-02-17T08:04:39.904Z,101001.81
2023-02-17T08:08:26.476Z,100997.94
2023-02-17T08:12:12.631Z,100996.36
2023-02-17T08:15:53.502Z,100990.37
2023-02-17T08:19:48.572Z,100985.26
2023-02-17T08:23:37.123Z,100992.85
2023-02-17T08:27:18.639Z,100992.85
2023-02-17T08:31:06.847Z,100991.05
2023-02-17T08:34:47.182Z,100991.88
2023-02-17T08:38:34.079Z,100986.94
2023-02-17T08:42:24.577Z,100985.95
2023-02-17T08:46:12.288Z,100979.05
2023-02-17T08:50:00.116Z,100977.67
2023-02-17T08:53:47.925Z,100974.10
2023-02-17T08:57:35.792Z,100973.75
2023-02-17T09:01:18.649Z,100970.80
2023-02-17T09:05:07.252Z,100962.81
2023-02-17T09:08:55.560Z,100962.48
2023-02-17T09:12:36.013Z,100951.14
2023-02-17T09:16:24.926Z,100946.35
2023-02-17T09:20:24.790Z,100938.94
2023-02-17T09:24:07.724Z,100934.39
2023-02-17T09:27:55.011Z,100935.99
2023-02-17T09:31:45.548Z,100932.46
2023-02-17T09:35:53.287Z,100922.36
2023-02-17T09:39:41.245Z,100919.92
2023-02-17T09:43:28.871Z,100908.17
2023-02-17T09:47:24.064Z,100903.91
2023-02-17T09:51:13.085Z,100896.58
2023-02-17T09:54:57.838Z,100896.78
2023-02-17T09:58:52.743Z,100891.13
2023-02-17T10:03:06.463Z,100896.27
2023-02-17T10:07:03.535Z,100879.78
2023-02-17T10:11:03.473Z,100866.70
2023-02-17T10:14:49.500Z,100868.41
2023-02-17T10:18:44.661Z,100866.98
2023-02-17T10:22:38.261Z,100860.57
2023-02-17T10:26:23.679Z,100852.73
2023-02-17T10:30:11.503Z,100850.79
2023-02-17T10:34:16.722Z,100850.29
2023-02-17T10:38:04.944Z,100842.07
2023-02-17T10:41:47.944Z,100836.59
2023-02-17T10:45:39.930Z,100828.23
2023-02-17T10:49:37.559Z,100820.84
2023-02-17T10:53:28.594Z,100806.61
2023-02-17T10:57:22.327Z,100804.67
2023-02-17T11:01:14.663Z,100786.31
2023-02-17T11:05:02.681Z,100777.95
2023-02-17T11:09:08.610Z,100774.96
2023-02-17T11:13:05.149Z,100759.02
2023-02-17T11:16:59.518Z,100755.59
2023-02-17T11:21:01.857Z,100740.36
2023-02-17T11:24:50.032Z,100732.62
2023-02-17T11:28:38.071Z,100720.11
2023-02-17T11:32:27.713Z,100712.05
2023-02-17T11:36:18.176Z,100702.19
2023-02-17T11:40:20.287Z,100686.85
2023-02-17T11:44:08.920Z,100671.83
2023-02-17T11:48:01.606Z,100666.34
2023-02-17T11:51:58.865Z,100660.56
2023-02-17T11:55:55.505Z,100655.64
2023-02-17T11:59:52.407Z,100654.50
2023-02-17T12:03:54.055Z,100653.10
2023-02-17T12:07:27.633Z,100650.86
2023-02-17T12:11:31.014Z,100646.52
2023-02-17T12:15:21.566Z,100633.27
2023-02-17T12:19:15.933Z,100619.13
2023-02-17T12:23:12.968Z,100600.11
2023-02-17T12:27:09.154Z,100602.07
2023-02-17T12:31:13.062Z,100593.50
2023-02-17T12:35:09.785Z,100591.49
2023-02-17T12:39:10.211Z,100581.44
2023-02-17T12:43:13.073Z,100575.66
2023-02-17T12:47:04.242Z,100571.96
2023-02-17T12:50:56.034Z,100567.13
2023-02-17T12:54:53.464Z,100547.66
2023-02-17T12:58:41.465Z,100539.17
2023-02-17T13:02:34.226Z,100531.73
2023-02-17T13:06:37.384Z,100522.70
2023-02-17T13:10:32.535Z,100513.47
2023-02-17T13:14:28.105Z,100508.27
2023-02-17T13:18:33.967Z,100499.20
2023-02-17T13:22:29.081Z,100489.38
2023-02-17T13:26:29.269Z,100480.29
2023-02-17T13:30:26.296Z,100471.20
2023-02-17T13:34:23.303Z,100450.15
2023-02-17T13:38:20.344Z,100434.40
2023-02-17T13:42:08.997Z,100433.05
2023-02-17T13:46:11.135Z,100425.83
2023-02-17T13:49:59.335Z,100410.97
2023-02-17T13:53:47.642Z,100397.04
2023-02-17T13:57:36.164Z,100392.98
2023-02-17T14:01:22.996Z,100383.73
2023-02-17T14:05:20.279Z,100378.02
2023-02-17T14:10:42.335Z,100365.89
2023-02-17T14:17:42.700Z,100357.83
2023-02-17T14:21:43.939Z,100345.94
2023-02-17T14:25:41.114Z,100334.67
2023-02-17T14:29:39.630Z,100332.45
2023-02-17T14:33:29.263Z,100332.34
2023-02-17T14:37:18.806Z,100314.70
2023-02-17T14:41:18.729Z,100304.16
2023-02-17T14:45:01.641Z,100297.27
2023-02-17T14:48:55.716Z,100298.73
2023-02-17T14:52:44.076Z,100304.81
2023-02-17T14:56:41.090Z,100303.52
2023-02-17T15:00:15.391Z,100298.80
2023-02-17T15:04:03.787Z,100294.17
2023-02-17T15:07:43.122Z,100300.66
2023-02-17T15:11:31.712Z,100302.42
2023-02-17T15:15:20.299Z,100293.30
2023-02-17T15:19:00.434Z,100279.46
2023-02-17T15:22:44.175Z,100284.17
2023-02-17T15:26:31.988Z,100278.41
2023-02-17T15:29:58.654Z,100256.63
2023-02-17T15:33:34.842Z,100259.27
2023-02-17T15:37:25.188Z,100237.53
2023-02-17T15:41:13.583Z,100251.58
2023-02-17T15:44:54.055Z,100254.98
2023-02-17T15:48:33.289Z,100254.80
2023-02-17T15:52:15.241Z,100238.35
2023-02-17T15:55:59.327Z,100241.44
2023-02-17T15:59:28.068Z,100232.02
2023-02-17T16:03:16.924Z,100244.88
2023-02-17T16:07:05.970Z,100247.66
2023-02-17T16:10:50.315Z,100235.93
2023-02-17T16:14:39.675Z,100233.92
2023-02-17T16:22:25.746Z,100229.98
2023-02-17T16:25:59.989Z,100227.60
2023-02-17T16:29:56.657Z,100220.64
2023-02-17T16:33:52.149Z,100206.40
2023-02-17T16:37:31.414Z,100209.21
2023-02-17T16:41:21.587Z,100201.11
2023-02-17T16:44:59.781Z,100198.45
2023-02-17T16:48:24.100Z,100189.30
2023-02-17T16:51:32.430Z,100184.31
2023-02-17T16:55:19.833Z,100177.64
2023-02-17T16:58:38.246Z,100179.31
2023-02-17T17:02:01.699Z,100181.48
2023-02-17T17:05:46.232Z,100178.98
2023-02-17T17:09:24.833Z,100179.16
2023-02-17T17:12:48.006Z,100183.48
2023-02-17T17:16:26.222Z,100189.75
2023-02-17T17:20:00.726Z,100188.41
2023-02-17T17:23:18.873Z,100185.14
2023-02-17T17:27:11.301Z,100183.82
2023-02-17T17:31:02.288Z,100189.23
2023-02-17T17:34:20.486Z,100192.88
2023-02-17T17:38:09.243Z,100192.71
2023-02-17T17:41:55.784Z,100192.11
2023-02-17T17:45:44.574Z,100188.80
2023-02-17T17:49:08.971Z,100191.96
2023-02-17T17:52:37.651Z,100192.61
2023-02-17T17:56:17.960Z,100192.47
2023-02-17T18:00:06.970Z,100187.64
2023-02-17T18:03:41.277Z,100189.46
2023-02-17T18:07:38.036Z,100167.95
2023-02-17T18:11:25.097Z,100160.94
2023-02-17T18:15:13.653Z,100156.41
2023-02-17T18:19:12.047Z,100152.52
2023-02-17T18:38:10.942Z,100145.33
2023-02-17T18:41:37.425Z,100146.09
2023-02-17T18:45:14.119Z,100141.89
2023-02-17T18:48:55.934Z,100142.20
2023-02-17T18:52:22.751Z,100138.11
2023-02-17T18:55:32.433Z,100148.90
2023-02-17T18:59:13.193Z,100150.20
2023-02-17T19:02:50.362Z,100156.30
2023-02-17T19:06:19.456Z,100154.44
2023-02-17T19:10:02.131Z,100148.30
2023-02-17T19:13:52.008Z,100141.55
2023-02-17T19:16:56.667Z,100126.88
2023-02-17T19:20:10.022Z,100121.71
2023-02-17T19:23:36.572Z,100115.29
2023-02-17T19:26:41.467Z,100121.61
2023-02-17T19:30:28.668Z,100120.80
2023-02-17T19:33:41.989Z,100120.82
2023-02-17T19:36:44.983Z,100120.34
2023-02-17T19:40:08.622Z,100124.11
2023-02-17T19:43:28.117Z,100113.95
2023-02-17T19:47:18.872Z,100131.45
2023-02-17T19:51:10.812Z,100134.03
2023-02-17T19:54:55.476Z,100142.30
2023-02-17T19:58:01.892Z,100151.87
2023-02-17T20:01:40.255Z,100174.94
2023-02-17T20:05:17.642Z,100197.05
2023-02-17T20:09:09.192Z,100204.48
2023-02-17T20:12:43.446Z,100199.55
2023-02-17T20:16:46.931Z,100207.46
2023-02-17T20:20:11.532Z,100198.91
2023-02-17T20:23:12.902Z,100203.43
2023-02-17T20:26:41.084Z,100216.29
2023-02-17T20:29:17.498Z,100223.02
2023-02-17T20:32:27.140Z,100227.72
2023-02-17T20:35:41.576Z,100226.95
2023-02-17T20:39:35.342Z,100218.11
2023-02-17T20:43:05.591Z,100227.04
2023-02-17T20:46:56.370Z,100224.23
2023-02-17T20:50:32.310Z,100217.33
2023-02-17T20:54:23.157Z,100223.55
2023-02-17T20:57:55.201Z,100233.49
2023-02-17T21:11:47.044Z,100241.00
2023-02-17T21:15:46.761Z,100254.63
2023-02-17T21:19:32.883Z,100257.23
2023-02-17T21:23:22.105Z,100264.56
2023-02-17T21:27:00.128Z,100276.58
2023-02-17T21:32:35.631Z,100272.67
2023-02-17T21:36:27.418Z,100270.19
2023-02-17T21:40:18.916Z,100272.69
2023-02-17T21:44:07.173Z,100275.61
2023-02-17T21:47:52.552Z,100272.20
2023-02-17T21:51:48.172Z,100282.67
2023-02-17T21:55:42.974Z,100282.37
2023-02-17T21:59:33.701Z,100263.31
2023-02-17T22:03:26.073Z,100279.29
2023-02-17T22:07:19.410Z,100279.13
2023-02-17T22:15:54.414Z,100305.20
2023-02-17T22:20:06.071Z,100313.91
2023-02-17T22:23:59.844Z,100303.25
2023-02-17T22:28:11.240Z,100316.77
2023-02-17T22:32:04.967Z,100324.93
2023-02-17T22:35:55.923Z,100331.95
2023-02-17T22:39:47.203Z,100336.48
2023-02-17T22:43:36.101Z,100349.63
2023-02-17T22:47:28.167Z,100349.70
2023-02-17T22:51:35.566Z,100360.02
2023-02-17T22:55:44.801Z,100359.30
2023-02-17T22:59:33.813Z,100357.58
2023-02-17T23:03:22.961Z,100351.75
2023-02-17T23:07:35.029Z,100347.35
2023-02-17T23:11:31.048Z,100362.63
2023-02-17T23:15:21.036Z,100372.57
2023-02-17T23:19:31.958Z,100368.75
2023-02-17T23:23:34.582Z,100378.19
2023-02-17T23:28:04.212Z,100390.74
2023-02-17T23:32:14.616Z,100393.44
2023-02-17T23:36:24.243Z,100414.03
2023-02-17T23:40:13.431Z,100419.71
2023-02-17T23:44:06.613Z,100412.56
2023-02-17T23:48:15.741Z,100433.37
2023-02-17T23:52:13.464Z,100438.18
2023-02-17T23:56:25.569Z,100445.14
